sensor_id;sensor_type;location;lat;lon;timestamp;P1;durP1;ratioP1;P2;durP2;ratioP2
7841;SDS011;3966;51.052;13.820;2022-09-06T00:00:06;9.30;;;6.82;;
7841;SDS011;3966;51.052;13.820;2022-09-06T00:02:34;12.82;;;7.40;;
7841;SDS011;3966;51.052;13.820;2022-09-06T00:05:00;8.95;;;7.40;;
7841;SDS011;3966;51.052;13.820;2022-09-06T00:07:26;9.25;;;7.10;;
7841;SDS011;3966;51.052;13.820;2022-09-06T00:09:51;18.30;;;7.63;;
7841;SDS011;3966;51.052;13.820;2022-09-06T00:12:17;7.40;;;6.35;;
7841;SDS011;3966;51.052;13.820;2022-09-06T00:14:42;9.82;;;6.85;;
7841;SDS011;3966;51.052;13.820;2022-09-06T00:17:08;9.52;;;7.18;;
7841;SDS011;3966;51.052;13.820;2022-09-06T00:19:33;12.35;;;7.10;;
7841;SDS011;3966;51.052;13.820;2022-09-06T00:21:59;16.35;;;7.10;;
7841;SDS011;3966;51.052;13.820;2022-09-06T00:24:24;8.43;;;6.35;;
7841;SDS011;3966;51.052;13.820;2022-09-06T00:26:50;9.55;;;6.75;;
7841;SDS011;3966;51.052;13.820;2022-09-06T00:29:15;7.45;;;6.07;;
7841;SDS011;3966;51.052;13.820;2022-09-06T00:31:41;10.05;;;6.72;;
7841;SDS011;3966;51.052;13.820;2022-09-06T00:34:06;7.25;;;6.38;;
7841;SDS011;3966;51.052;13.820;2022-09-06T00:36:32;8.55;;;6.38;;
7841;SDS011;3966;51.052;13.820;2022-09-06T00:38:57;8.48;;;6.35;;
7841;SDS011;3966;51.052;13.820;2022-09-06T00:41:23;11.38;;;6.07;;
7841;SDS011;3966;51.052;13.820;2022-09-06T00:43:49;7.15;;;6.20;;
7841;SDS011;3966;51.052;13.820;2022-09-06T00:46:17;8.45;;;6.70;;
7841;SDS011;3966;51.052;13.820;2022-09-06T00:48:48;9.10;;;5.80;;
7841;SDS011;3966;51.052;13.820;2022-09-06T00:51:17;8.52;;;5.63;;
7841;SDS011;3966;51.052;13.820;2022-09-06T00:53:44;8.50;;;6.13;;
7841;SDS011;3966;51.052;13.820;2022-09-06T00:56:10;7.80;;;5.95;;
7841;SDS011;3966;51.052;13.820;2022-09-06T00:58:36;7.13;;;5.70;;
7841;SDS011;3966;51.052;13.820;2022-09-06T01:01:02;8.23;;;5.90;;
7841;SDS011;3966;51.052;13.820;2022-09-06T01:03:29;7.38;;;5.55;;
7841;SDS011;3966;51.052;13.820;2022-09-06T01:06:16;6.28;;;5.65;;
7841;SDS011;3966;51.052;13.820;2022-09-06T01:09:06;6.32;;;5.72;;
7841;SDS011;3966;51.052;13.820;2022-09-06T01:20:13;8.23;;;5.70;;
7841;SDS011;3966;51.052;13.820;2022-09-06T01:29:04;9.23;;;5.55;;
7841;SDS011;3966;51.052;13.820;2022-09-06T01:31:55;7.13;;;5.47;;
7841;SDS011;3966;51.052;13.820;2022-09-06T01:34:28;7.93;;;5.18;;
7841;SDS011;3966;51.052;13.820;2022-09-06T01:37:02;6.82;;;5.13;;
7841;SDS011;3966;51.052;13.820;2022-09-06T01:39:37;7.45;;;5.72;;
7841;SDS011;3966;51.052;13.820;2022-09-06T01:42:08;8.05;;;5.55;;
7841;SDS011;3966;51.052;13.820;2022-09-06T01:44:46;6.10;;;4.75;;
7841;SDS011;3966;51.052;13.820;2022-09-06T01:50:32;5.90;;;5.30;;
7841;SDS011;3966;51.052;13.820;2022-09-06T01:56:06;5.78;;;5.18;;
7841;SDS011;3966;51.052;13.820;2022-09-06T02:01:37;7.63;;;5.10;;
7841;SDS011;3966;51.052;13.820;2022-09-06T02:04:17;5.93;;;5.43;;
7841;SDS011;3966;51.052;13.820;2022-09-06T02:06:59;6.90;;;5.68;;
7841;SDS011;3966;51.052;13.820;2022-09-06T02:09:27;7.32;;;5.30;;
7841;SDS011;3966;51.052;13.820;2022-09-06T02:12:00;6.38;;;5.00;;
7841;SDS011;3966;51.052;13.820;2022-09-06T02:14:30;6.47;;;5.07;;
7841;SDS011;3966;51.052;13.820;2022-09-06T02:17:02;7.18;;;5.40;;
7841;SDS011;3966;51.052;13.820;2022-09-06T02:19:41;6.63;;;5.32;;
7841;SDS011;3966;51.052;13.820;2022-09-06T02:22:16;7.78;;;6.30;;
7841;SDS011;3966;51.052;13.820;2022-09-06T02:24:44;11.45;;;5.60;;
7841;SDS011;3966;51.052;13.820;2022-09-06T02:27:13;5.38;;;4.88;;
7841;SDS011;3966;51.052;13.820;2022-09-06T02:29:39;5.20;;;4.78;;
7841;SDS011;3966;51.052;13.820;2022-09-06T02:34:39;6.82;;;5.38;;
7841;SDS011;3966;51.052;13.820;2022-09-06T02:37:05;7.55;;;5.70;;
7841;SDS011;3966;51.052;13.820;2022-09-06T02:39:32;7.05;;;5.45;;
7841;SDS011;3966;51.052;13.820;2022-09-06T02:41:57;5.68;;;5.10;;
7841;SDS011;3966;51.052;13.820;2022-09-06T02:44:24;6.93;;;5.60;;
7841;SDS011;3966;51.052;13.820;2022-09-06T02:46:50;7.97;;;5.53;;
7841;SDS011;3966;51.052;13.820;2022-09-06T02:49:15;7.85;;;5.03;;
7841;SDS011;3966;51.052;13.820;2022-09-06T02:51:41;7.10;;;5.18;;
7841;SDS011;3966;51.052;13.820;2022-09-06T02:54:06;7.68;;;5.30;;
7841;SDS011;3966;51.052;13.820;2022-09-06T02:56:32;8.05;;;5.60;;
7841;SDS011;3966;51.052;13.820;2022-09-06T02:58:58;6.82;;;5.05;;
7841;SDS011;3966;51.052;13.820;2022-09-06T03:01:24;7.07;;;5.28;;
7841;SDS011;3966;51.052;13.820;2022-09-06T03:03:50;5.63;;;4.97;;
7841;SDS011;3966;51.052;13.820;2022-09-06T03:06:15;6.03;;;4.90;;
7841;SDS011;3966;51.052;13.820;2022-09-06T03:08:41;6.00;;;5.15;;
7841;SDS011;3966;51.052;13.820;2022-09-06T03:11:06;10.65;;;5.88;;
7841;SDS011;3966;51.052;13.820;2022-09-06T03:13:32;6.50;;;5.40;;
7841;SDS011;3966;51.052;13.820;2022-09-06T03:15:58;7.55;;;5.57;;
7841;SDS011;3966;51.052;13.820;2022-09-06T03:18:24;8.50;;;5.25;;
7841;SDS011;3966;51.052;13.820;2022-09-06T03:20:52;5.78;;;5.07;;
7841;SDS011;3966;51.052;13.820;2022-09-06T03:23:18;8.38;;;5.53;;
7841;SDS011;3966;51.052;13.820;2022-09-06T03:25:45;7.88;;;5.75;;
7841;SDS011;3966;51.052;13.820;2022-09-06T03:28:11;8.88;;;5.50;;
7841;SDS011;3966;51.052;13.820;2022-09-06T03:30:36;6.78;;;5.40;;
7841;SDS011;3966;51.052;13.820;2022-09-06T03:33:03;8.45;;;5.70;;
7841;SDS011;3966;51.052;13.820;2022-09-06T03:35:28;9.85;;;5.60;;
7841;SDS011;3966;51.052;13.820;2022-09-06T03:37:54;7.70;;;5.80;;
7841;SDS011;3966;51.052;13.820;2022-09-06T03:40:19;8.10;;;6.13;;
7841;SDS011;3966;51.052;13.820;2022-09-06T03:42:45;8.02;;;5.90;;
7841;SDS011;3966;51.052;13.820;2022-09-06T03:45:10;7.10;;;5.45;;
7841;SDS011;3966;51.052;13.820;2022-09-06T03:47:36;5.88;;;5.32;;
7841;SDS011;3966;51.052;13.820;2022-09-06T03:50:02;7.43;;;5.97;;
7841;SDS011;3966;51.052;13.820;2022-09-06T03:52:29;11.23;;;6.13;;
7841;SDS011;3966;51.052;13.820;2022-09-06T03:54:54;7.22;;;6.03;;
7841;SDS011;3966;51.052;13.820;2022-09-06T03:57:20;7.05;;;5.72;;
7841;SDS011;3966;51.052;13.820;2022-09-06T03:59:46;10.07;;;5.72;;
7841;SDS011;3966;51.052;13.820;2022-09-06T04:02:11;7.97;;;6.15;;
7841;SDS011;3966;51.052;13.820;2022-09-06T04:04:37;6.90;;;5.43;;
7841;SDS011;3966;51.052;13.820;2022-09-06T04:07:02;7.55;;;6.05;;
7841;SDS011;3966;51.052;13.820;2022-09-06T04:09:28;9.98;;;6.00;;
7841;SDS011;3966;51.052;13.820;2022-09-06T04:11:54;7.63;;;5.70;;
7841;SDS011;3966;51.052;13.820;2022-09-06T04:14:20;8.20;;;6.47;;
7841;SDS011;3966;51.052;13.820;2022-09-06T04:16:45;8.20;;;5.93;;
7841;SDS011;3966;51.052;13.820;2022-09-06T04:19:11;7.65;;;6.50;;
7841;SDS011;3966;51.052;13.820;2022-09-06T04:21:36;7.60;;;6.65;;
7841;SDS011;3966;51.052;13.820;2022-09-06T04:24:02;13.95;;;7.18;;
7841;SDS011;3966;51.052;13.820;2022-09-06T04:26:28;7.18;;;6.43;;
7841;SDS011;3966;51.052;13.820;2022-09-06T04:28:54;8.18;;;6.30;;
7841;SDS011;3966;51.052;13.820;2022-09-06T04:31:19;8.85;;;6.63;;
7841;SDS011;3966;51.052;13.820;2022-09-06T04:33:44;8.45;;;5.72;;
7841;SDS011;3966;51.052;13.820;2022-09-06T04:36:10;10.35;;;7.05;;
7841;SDS011;3966;51.052;13.820;2022-09-06T04:38:37;6.85;;;6.05;;
7841;SDS011;3966;51.052;13.820;2022-09-06T04:41:05;7.53;;;6.55;;
7841;SDS011;3966;51.052;13.820;2022-09-06T04:43:31;8.45;;;6.68;;
7841;SDS011;3966;51.052;13.820;2022-09-06T04:46:14;7.50;;;6.07;;
7841;SDS011;3966;51.052;13.820;2022-09-06T04:48:50;10.60;;;6.63;;
7841;SDS011;3966;51.052;13.820;2022-09-06T04:51:16;8.27;;;6.80;;
7841;SDS011;3966;51.052;13.820;2022-09-06T04:53:42;10.48;;;6.32;;
7841;SDS011;3966;51.052;13.820;2022-09-06T04:56:12;9.80;;;6.05;;
7841;SDS011;3966;51.052;13.820;2022-09-06T04:58:43;9.20;;;6.20;;
7841;SDS011;3966;51.052;13.820;2022-09-06T05:01:10;7.57;;;6.28;;
7841;SDS011;3966;51.052;13.820;2022-09-06T05:03:36;9.15;;;6.00;;
7841;SDS011;3966;51.052;13.820;2022-09-06T05:06:11;8.52;;;6.05;;
7841;SDS011;3966;51.052;13.820;2022-09-06T05:08:42;7.35;;;6.65;;
7841;SDS011;3966;51.052;13.820;2022-09-06T05:11:08;10.57;;;7.63;;
7841;SDS011;3966;51.052;13.820;2022-09-06T05:13:35;7.20;;;6.43;;
7841;SDS011;3966;51.052;13.820;2022-09-06T05:16:02;7.15;;;5.65;;
7841;SDS011;3966;51.052;13.820;2022-09-06T05:18:31;7.00;;;6.30;;
7841;SDS011;3966;51.052;13.820;2022-09-06T05:20:57;7.95;;;5.97;;
7841;SDS011;3966;51.052;13.820;2022-09-06T05:23:23;8.15;;;6.60;;
7841;SDS011;3966;51.052;13.820;2022-09-06T05:25:55;11.57;;;7.20;;
7841;SDS011;3966;51.052;13.820;2022-09-06T05:28:20;9.23;;;6.10;;
7841;SDS011;3966;51.052;13.820;2022-09-06T05:30:49;8.02;;;6.45;;
7841;SDS011;3966;51.052;13.820;2022-09-06T05:33:19;9.02;;;6.47;;
7841;SDS011;3966;51.052;13.820;2022-09-06T05:35:46;10.75;;;7.25;;
7841;SDS011;3966;51.052;13.820;2022-09-06T05:38:12;7.70;;;6.75;;
7841;SDS011;3966;51.052;13.820;2022-09-06T05:40:39;8.02;;;6.00;;
7841;SDS011;3966;51.052;13.820;2022-09-06T05:43:05;10.48;;;7.45;;
7841;SDS011;3966;51.052;13.820;2022-09-06T05:45:34;10.57;;;6.82;;
7841;SDS011;3966;51.052;13.820;2022-09-06T05:47:59;7.13;;;6.32;;
7841;SDS011;3966;51.052;13.820;2022-09-06T05:50:25;8.45;;;6.38;;
7841;SDS011;3966;51.052;13.820;2022-09-06T05:52:52;8.60;;;6.55;;
7841;SDS011;3966;51.052;13.820;2022-09-06T05:55:18;7.70;;;6.43;;
7841;SDS011;3966;51.052;13.820;2022-09-06T05:57:43;12.93;;;7.30;;
7841;SDS011;3966;51.052;13.820;2022-09-06T06:00:09;8.60;;;6.43;;
7841;SDS011;3966;51.052;13.820;2022-09-06T06:02:36;8.00;;;6.60;;
7841;SDS011;3966;51.052;13.820;2022-09-06T06:05:01;8.02;;;6.05;;
7841;SDS011;3966;51.052;13.820;2022-09-06T06:07:27;11.63;;;7.25;;
7841;SDS011;3966;51.052;13.820;2022-09-06T06:09:52;10.15;;;7.13;;
7841;SDS011;3966;51.052;13.820;2022-09-06T06:12:18;11.20;;;7.25;;
7841;SDS011;3966;51.052;13.820;2022-09-06T06:14:43;9.88;;;6.82;;
7841;SDS011;3966;51.052;13.820;2022-09-06T06:17:09;9.05;;;6.00;;
7841;SDS011;3966;51.052;13.820;2022-09-06T06:19:34;8.48;;;6.22;;
7841;SDS011;3966;51.052;13.820;2022-09-06T06:22:01;7.07;;;6.28;;
7841;SDS011;3966;51.052;13.820;2022-09-06T06:24:26;9.55;;;6.03;;
7841;SDS011;3966;51.052;13.820;2022-09-06T06:26:52;8.70;;;6.30;;
7841;SDS011;3966;51.052;13.820;2022-09-06T06:29:17;6.80;;;6.10;;
7841;SDS011;3966;51.052;13.820;2022-09-06T06:31:43;10.30;;;5.68;;
7841;SDS011;3966;51.052;13.820;2022-09-06T06:34:09;8.57;;;5.75;;
7841;SDS011;3966;51.052;13.820;2022-09-06T06:36:35;6.88;;;5.78;;
7841;SDS011;3966;51.052;13.820;2022-09-06T06:39:02;7.25;;;5.55;;
7841;SDS011;3966;51.052;13.820;2022-09-06T06:41:30;6.00;;;5.40;;
7841;SDS011;3966;51.052;13.820;2022-09-06T06:43:57;7.82;;;5.78;;
7841;SDS011;3966;51.052;13.820;2022-09-06T06:46:25;7.72;;;5.28;;
7841;SDS011;3966;51.052;13.820;2022-09-06T06:48:53;5.88;;;5.28;;
7841;SDS011;3966;51.052;13.820;2022-09-06T06:51:19;5.93;;;5.18;;
7841;SDS011;3966;51.052;13.820;2022-09-06T06:53:46;6.97;;;5.53;;
7841;SDS011;3966;51.052;13.820;2022-09-06T06:58:43;6.75;;;5.05;;
7841;SDS011;3966;51.052;13.820;2022-09-06T07:01:09;5.40;;;4.72;;
7841;SDS011;3966;51.052;13.820;2022-09-06T07:03:35;5.30;;;4.80;;
7841;SDS011;3966;51.052;13.820;2022-09-06T07:06:02;6.13;;;5.10;;
7841;SDS011;3966;51.052;13.820;2022-09-06T07:08:28;6.20;;;4.57;;
7841;SDS011;3966;51.052;13.820;2022-09-06T07:10:53;8.88;;;4.72;;
7841;SDS011;3966;51.052;13.820;2022-09-06T07:13:18;5.45;;;4.30;;
7841;SDS011;3966;51.052;13.820;2022-09-06T07:15:44;5.05;;;4.57;;
7841;SDS011;3966;51.052;13.820;2022-09-06T07:18:09;7.38;;;5.18;;
7841;SDS011;3966;51.052;13.820;2022-09-06T07:20:35;5.35;;;4.55;;
7841;SDS011;3966;51.052;13.820;2022-09-06T07:23:02;6.35;;;5.22;;
7841;SDS011;3966;51.052;13.820;2022-09-06T07:25:29;5.10;;;4.53;;
7841;SDS011;3966;51.052;13.820;2022-09-06T07:27:56;5.43;;;4.65;;
7841;SDS011;3966;51.052;13.820;2022-09-06T07:30:23;7.25;;;4.88;;
7841;SDS011;3966;51.052;13.820;2022-09-06T07:32:48;4.50;;;4.10;;
7841;SDS011;3966;51.052;13.820;2022-09-06T07:35:14;7.00;;;4.95;;
7841;SDS011;3966;51.052;13.820;2022-09-06T07:37:40;11.95;;;4.50;;
7841;SDS011;3966;51.052;13.820;2022-09-06T07:40:05;4.78;;;4.30;;
7841;SDS011;3966;51.052;13.820;2022-09-06T07:42:31;8.10;;;4.70;;
7841;SDS011;3966;51.052;13.820;2022-09-06T07:44:57;4.95;;;4.50;;
7841;SDS011;3966;51.052;13.820;2022-09-06T07:47:22;5.00;;;4.50;;
7841;SDS011;3966;51.052;13.820;2022-09-06T07:49:47;6.43;;;4.35;;
7841;SDS011;3966;51.052;13.820;2022-09-06T07:52:13;4.85;;;4.40;;
7841;SDS011;3966;51.052;13.820;2022-09-06T07:54:38;7.72;;;4.75;;
7841;SDS011;3966;51.052;13.820;2022-09-06T07:57:04;4.93;;;4.38;;
7841;SDS011;3966;51.052;13.820;2022-09-06T07:59:29;6.38;;;5.40;;
7841;SDS011;3966;51.052;13.820;2022-09-06T08:01:55;5.18;;;4.68;;
7841;SDS011;3966;51.052;13.820;2022-09-06T08:04:20;7.72;;;4.80;;
7841;SDS011;3966;51.052;13.820;2022-09-06T08:06:47;6.82;;;4.68;;
7841;SDS011;3966;51.052;13.820;2022-09-06T08:09:14;4.97;;;4.45;;
7841;SDS011;3966;51.052;13.820;2022-09-06T08:11:40;5.93;;;4.63;;
7841;SDS011;3966;51.052;13.820;2022-09-06T08:14:06;4.40;;;4.00;;
7841;SDS011;3966;51.052;13.820;2022-09-06T08:16:33;5.85;;;5.25;;
7841;SDS011;3966;51.052;13.820;2022-09-06T08:19:00;5.43;;;4.88;;
7841;SDS011;3966;51.052;13.820;2022-09-06T08:21:28;4.88;;;4.30;;
7841;SDS011;3966;51.052;13.820;2022-09-06T08:23:59;5.15;;;4.50;;
7841;SDS011;3966;51.052;13.820;2022-09-06T08:26:30;5.57;;;4.45;;
7841;SDS011;3966;51.052;13.820;2022-09-06T08:29:00;5.45;;;4.65;;
7841;SDS011;3966;51.052;13.820;2022-09-06T08:31:28;5.10;;;4.50;;
7841;SDS011;3966;51.052;13.820;2022-09-06T08:33:55;4.57;;;4.18;;
7841;SDS011;3966;51.052;13.820;2022-09-06T08:36:22;7.85;;;4.50;;
7841;SDS011;3966;51.052;13.820;2022-09-06T08:38:50;4.97;;;4.57;;
7841;SDS011;3966;51.052;13.820;2022-09-06T08:41:22;6.10;;;4.68;;
7841;SDS011;3966;51.052;13.820;2022-09-06T08:43:54;7.13;;;4.20;;
7841;SDS011;3966;51.052;13.820;2022-09-06T08:46:33;5.45;;;4.53;;
7841;SDS011;3966;51.052;13.820;2022-09-06T08:49:04;4.97;;;4.57;;
7841;SDS011;3966;51.052;13.820;2022-09-06T08:51:41;4.72;;;4.20;;
7841;SDS011;3966;51.052;13.820;2022-09-06T08:54:23;6.25;;;4.35;;
7841;SDS011;3966;51.052;13.820;2022-09-06T08:59:46;6.45;;;4.70;;
7841;SDS011;3966;51.052;13.820;2022-09-06T09:02:16;4.68;;;4.07;;
7841;SDS011;3966;51.052;13.820;2022-09-06T09:04:51;5.00;;;4.47;;
7841;SDS011;3966;51.052;13.820;2022-09-06T09:07:33;4.70;;;4.30;;
7841;SDS011;3966;51.052;13.820;2022-09-06T09:10:29;4.80;;;4.13;;
7841;SDS011;3966;51.052;13.820;2022-09-06T09:12:59;11.10;;;4.15;;
7841;SDS011;3966;51.052;13.820;2022-09-06T09:15:27;4.47;;;4.07;;
7841;SDS011;3966;51.052;13.820;2022-09-06T09:17:53;8.30;;;4.53;;
7841;SDS011;3966;51.052;13.820;2022-09-06T09:20:19;8.38;;;4.32;;
7841;SDS011;3966;51.052;13.820;2022-09-06T09:22:45;5.53;;;4.40;;
7841;SDS011;3966;51.052;13.820;2022-09-06T09:25:12;5.75;;;4.50;;
7841;SDS011;3966;51.052;13.820;2022-09-06T09:27:42;7.72;;;4.57;;
7841;SDS011;3966;51.052;13.820;2022-09-06T09:30:09;4.70;;;4.25;;
7841;SDS011;3966;51.052;13.820;2022-09-06T09:32:36;4.82;;;4.10;;
7841;SDS011;3966;51.052;13.820;2022-09-06T09:35:26;6.45;;;4.00;;
7841;SDS011;3966;51.052;13.820;2022-09-06T09:40:39;4.82;;;4.40;;
7841;SDS011;3966;51.052;13.820;2022-09-06T09:45:40;6.60;;;4.28;;
7841;SDS011;3966;51.052;13.820;2022-09-06T09:48:25;4.80;;;4.40;;
7841;SDS011;3966;51.052;13.820;2022-09-06T09:50:51;5.43;;;4.10;;
7841;SDS011;3966;51.052;13.820;2022-09-06T09:53:18;10.50;;;4.97;;
7841;SDS011;3966;51.052;13.820;2022-09-06T09:55:46;4.55;;;4.15;;
7841;SDS011;3966;51.052;13.820;2022-09-06T09:58:46;4.53;;;4.10;;
7841;SDS011;3966;51.052;13.820;2022-09-06T10:01:11;4.75;;;4.30;;
7841;SDS011;3966;51.052;13.820;2022-09-06T10:03:42;6.07;;;4.10;;
7841;SDS011;3966;51.052;13.820;2022-09-06T10:06:09;4.07;;;3.65;;
7841;SDS011;3966;51.052;13.820;2022-09-06T10:08:38;4.57;;;4.18;;
7841;SDS011;3966;51.052;13.820;2022-09-06T10:11:08;4.50;;;4.10;;
7841;SDS011;3966;51.052;13.820;2022-09-06T10:13:36;5.60;;;4.53;;
7841;SDS011;3966;51.052;13.820;2022-09-06T10:16:01;4.15;;;3.85;;
7841;SDS011;3966;51.052;13.820;2022-09-06T10:21:00;4.55;;;4.15;;
7841;SDS011;3966;51.052;13.820;2022-09-06T10:29:11;6.35;;;3.92;;
7841;SDS011;3966;51.052;13.820;2022-09-06T10:34:14;5.60;;;4.10;;
7841;SDS011;3966;51.052;13.820;2022-09-06T10:42:42;4.40;;;4.00;;
7841;SDS011;3966;51.052;13.820;2022-09-06T10:48:03;4.38;;;3.80;;
7841;SDS011;3966;51.052;13.820;2022-09-06T10:53:25;4.05;;;3.75;;
7841;SDS011;3966;51.052;13.820;2022-09-06T10:56:00;5.15;;;4.20;;
7841;SDS011;3966;51.052;13.820;2022-09-06T10:58:30;5.97;;;4.25;;
7841;SDS011;3966;51.052;13.820;2022-09-06T11:01:20;4.97;;;4.10;;
7841;SDS011;3966;51.052;13.820;2022-09-06T11:03:51;6.30;;;4.28;;
7841;SDS011;3966;51.052;13.820;2022-09-06T11:06:21;4.22;;;3.83;;
7841;SDS011;3966;51.052;13.820;2022-09-06T11:09:05;4.20;;;3.80;;
7841;SDS011;3966;51.052;13.820;2022-09-06T11:11:39;5.35;;;4.53;;
7841;SDS011;3966;51.052;13.820;2022-09-06T11:14:12;4.57;;;4.15;;
7841;SDS011;3966;51.052;13.820;2022-09-06T11:16:47;4.70;;;4.25;;
7841;SDS011;3966;51.052;13.820;2022-09-06T11:19:19;10.10;;;4.07;;
7841;SDS011;3966;51.052;13.820;2022-09-06T11:27:46;5.05;;;3.83;;
7841;SDS011;3966;51.052;13.820;2022-09-06T11:30:17;7.55;;;3.92;;
7841;SDS011;3966;51.052;13.820;2022-09-06T11:32:44;3.78;;;3.50;;
7841;SDS011;3966;51.052;13.820;2022-09-06T11:35:20;4.32;;;3.92;;
7841;SDS011;3966;51.052;13.820;2022-09-06T11:38:06;9.35;;;4.93;;
7841;SDS011;3966;51.052;13.820;2022-09-06T11:40:40;3.75;;;3.45;;
7841;SDS011;3966;51.052;13.820;2022-09-06T11:43:41;4.15;;;3.80;;
7841;SDS011;3966;51.052;13.820;2022-09-06T11:46:24;4.93;;;3.63;;
7841;SDS011;3966;51.052;13.820;2022-09-06T11:49:03;7.30;;;4.05;;
7841;SDS011;3966;51.052;13.820;2022-09-06T11:51:35;4.65;;;3.72;;
7841;SDS011;3966;51.052;13.820;2022-09-06T11:56:51;6.07;;;3.58;;
7841;SDS011;3966;51.052;13.820;2022-09-06T12:02:00;3.95;;;3.65;;
7841;SDS011;3966;51.052;13.820;2022-09-06T12:07:24;6.15;;;4.13;;
7841;SDS011;3966;51.052;13.820;2022-09-06T12:09:51;4.30;;;3.78;;
7841;SDS011;3966;51.052;13.820;2022-09-06T12:12:37;4.78;;;3.28;;
7841;SDS011;3966;51.052;13.820;2022-09-06T12:17:57;8.27;;;3.55;;
7841;SDS011;3966;51.052;13.820;2022-09-06T12:25:59;4.15;;;3.85;;
7841;SDS011;3966;51.052;13.820;2022-09-06T12:28:42;4.55;;;3.35;;
7841;SDS011;3966;51.052;13.820;2022-09-06T12:31:21;3.83;;;3.53;;
7841;SDS011;3966;51.052;13.820;2022-09-06T12:34:08;3.47;;;3.28;;
7841;SDS011;3966;51.052;13.820;2022-09-06T12:36:46;5.30;;;3.40;;
7841;SDS011;3966;51.052;13.820;2022-09-06T12:39:14;3.80;;;3.50;;
7841;SDS011;3966;51.052;13.820;2022-09-06T12:41:40;4.53;;;3.40;;
7841;SDS011;3966;51.052;13.820;2022-09-06T12:44:09;3.88;;;3.58;;
7841;SDS011;3966;51.052;13.820;2022-09-06T12:46:35;3.60;;;3.35;;
7841;SDS011;3966;51.052;13.820;2022-09-06T12:49:05;3.90;;;3.28;;
7841;SDS011;3966;51.052;13.820;2022-09-06T12:51:33;4.88;;;3.60;;
7841;SDS011;3966;51.052;13.820;2022-09-06T12:54:02;4.18;;;3.78;;
7841;SDS011;3966;51.052;13.820;2022-09-06T12:56:30;4.70;;;3.80;;
7841;SDS011;3966;51.052;13.820;2022-09-06T12:59:11;3.88;;;3.53;;
7841;SDS011;3966;51.052;13.820;2022-09-06T13:04:40;5.07;;;3.50;;
7841;SDS011;3966;51.052;13.820;2022-09-06T13:07:12;3.45;;;3.10;;
7841;SDS011;3966;51.052;13.820;2022-09-06T13:09:41;4.03;;;3.67;;
7841;SDS011;3966;51.052;13.820;2022-09-06T13:14:45;10.27;;;3.72;;
7841;SDS011;3966;51.052;13.820;2022-09-06T13:17:21;3.50;;;3.20;;
7841;SDS011;3966;51.052;13.820;2022-09-06T13:19:48;4.22;;;3.83;;
7841;SDS011;3966;51.052;13.820;2022-09-06T13:22:35;6.80;;;4.03;;
7841;SDS011;3966;51.052;13.820;2022-09-06T13:25:03;4.75;;;3.65;;
7841;SDS011;3966;51.052;13.820;2022-09-06T13:29:58;4.88;;;4.15;;
7841;SDS011;3966;51.052;13.820;2022-09-06T13:32:26;4.28;;;3.88;;
7841;SDS011;3966;51.052;13.820;2022-09-06T13:34:52;4.60;;;3.75;;
7841;SDS011;3966;51.052;13.820;2022-09-06T13:37:23;7.53;;;4.10;;
7841;SDS011;3966;51.052;13.820;2022-09-06T13:39:50;5.07;;;3.95;;
7841;SDS011;3966;51.052;13.820;2022-09-06T13:42:27;5.82;;;4.18;;
7841;SDS011;3966;51.052;13.820;2022-09-06T13:44:54;3.88;;;3.58;;
7841;SDS011;3966;51.052;13.820;2022-09-06T13:47:20;2.63;;;2.42;;
7841;SDS011;3966;51.052;13.820;2022-09-06T13:49:46;2.97;;;2.75;;
7841;SDS011;3966;51.052;13.820;2022-09-06T13:52:12;3.20;;;2.60;;
7841;SDS011;3966;51.052;13.820;2022-09-06T13:54:38;4.65;;;2.90;;
7841;SDS011;3966;51.052;13.820;2022-09-06T13:57:04;4.63;;;2.63;;
7841;SDS011;3966;51.052;13.820;2022-09-06T13:59:29;5.28;;;3.05;;
7841;SDS011;3966;51.052;13.820;2022-09-06T14:02:02;4.10;;;3.53;;
7841;SDS011;3966;51.052;13.820;2022-09-06T14:04:31;10.88;;;3.83;;
7841;SDS011;3966;51.052;13.820;2022-09-06T14:06:57;6.72;;;3.90;;
7841;SDS011;3966;51.052;13.820;2022-09-06T14:09:23;7.90;;;4.38;;
7841;SDS011;3966;51.052;13.820;2022-09-06T14:11:48;7.53;;;4.35;;
7841;SDS011;3966;51.052;13.820;2022-09-06T14:14:15;8.55;;;5.25;;
7841;SDS011;3966;51.052;13.820;2022-09-06T14:16:41;9.02;;;5.53;;
7841;SDS011;3966;51.052;13.820;2022-09-06T14:19:07;6.97;;;5.28;;
7841;SDS011;3966;51.052;13.820;2022-09-06T14:21:33;7.18;;;4.57;;
7841;SDS011;3966;51.052;13.820;2022-09-06T14:23:59;8.15;;;5.47;;
7841;SDS011;3966;51.052;13.820;2022-09-06T14:26:25;8.55;;;5.15;;
7841;SDS011;3966;51.052;13.820;2022-09-06T14:28:51;8.88;;;4.80;;
7841;SDS011;3966;51.052;13.820;2022-09-06T14:31:21;7.53;;;4.53;;
7841;SDS011;3966;51.052;13.820;2022-09-06T14:33:49;6.13;;;5.15;;
7841;SDS011;3966;51.052;13.820;2022-09-06T14:36:16;5.43;;;4.53;;
7841;SDS011;3966;51.052;13.820;2022-09-06T14:38:44;5.43;;;4.88;;
7841;SDS011;3966;51.052;13.820;2022-09-06T14:41:11;7.88;;;4.93;;
7841;SDS011;3966;51.052;13.820;2022-09-06T14:43:38;4.88;;;4.47;;
7841;SDS011;3966;51.052;13.820;2022-09-06T14:46:09;5.47;;;4.97;;
7841;SDS011;3966;51.052;13.820;2022-09-06T14:48:36;7.93;;;5.35;;
7841;SDS011;3966;51.052;13.820;2022-09-06T14:51:12;6.47;;;4.80;;
7841;SDS011;3966;51.052;13.820;2022-09-06T14:53:43;8.25;;;5.20;;
7841;SDS011;3966;51.052;13.820;2022-09-06T14:56:09;7.47;;;5.40;;
7841;SDS011;3966;51.052;13.820;2022-09-06T14:58:36;6.88;;;5.45;;
7841;SDS011;3966;51.052;13.820;2022-09-06T15:01:12;8.13;;;5.28;;
7841;SDS011;3966;51.052;13.820;2022-09-06T15:03:40;6.68;;;5.60;;
7841;SDS011;3966;51.052;13.820;2022-09-06T15:06:08;6.25;;;4.72;;
7841;SDS011;3966;51.052;13.820;2022-09-06T15:08:34;6.47;;;5.50;;
7841;SDS011;3966;51.052;13.820;2022-09-06T15:11:00;6.85;;;5.78;;
7841;SDS011;3966;51.052;13.820;2022-09-06T15:13:26;6.90;;;5.30;;
7841;SDS011;3966;51.052;13.820;2022-09-06T15:15:55;8.20;;;5.80;;
7841;SDS011;3966;51.052;13.820;2022-09-06T15:18:21;6.45;;;5.05;;
7841;SDS011;3966;51.052;13.820;2022-09-06T15:20:47;6.63;;;5.30;;
7841;SDS011;3966;51.052;13.820;2022-09-06T15:23:13;6.47;;;5.82;;
7841;SDS011;3966;51.052;13.820;2022-09-06T15:25:46;6.60;;;5.80;;
7841;SDS011;3966;51.052;13.820;2022-09-06T15:28:16;6.10;;;5.45;;
7841;SDS011;3966;51.052;13.820;2022-09-06T15:30:43;6.10;;;5.50;;
7841;SDS011;3966;51.052;13.820;2022-09-06T15:33:12;7.82;;;6.07;;
7841;SDS011;3966;51.052;13.820;2022-09-06T15:35:39;5.90;;;5.20;;
7841;SDS011;3966;51.052;13.820;2022-09-06T15:38:06;7.00;;;5.97;;
7841;SDS011;3966;51.052;13.820;2022-09-06T15:40:32;5.90;;;5.18;;
7841;SDS011;3966;51.052;13.820;2022-09-06T15:42:57;8.20;;;5.50;;
7841;SDS011;3966;51.052;13.820;2022-09-06T15:45:23;6.13;;;5.40;;
7841;SDS011;3966;51.052;13.820;2022-09-06T15:47:48;9.38;;;6.95;;
7841;SDS011;3966;51.052;13.820;2022-09-06T15:50:14;9.32;;;6.80;;
7841;SDS011;3966;51.052;13.820;2022-09-06T15:52:40;12.93;;;7.25;;
7841;SDS011;3966;51.052;13.820;2022-09-06T15:55:06;7.82;;;6.72;;
7841;SDS011;3966;51.052;13.820;2022-09-06T15:57:50;9.27;;;6.70;;
7841;SDS011;3966;51.052;13.820;2022-09-06T16:00:16;8.57;;;7.10;;
7841;SDS011;3966;51.052;13.820;2022-09-06T16:02:45;8.05;;;7.28;;
7841;SDS011;3966;51.052;13.820;2022-09-06T16:05:11;12.18;;;8.63;;
7841;SDS011;3966;51.052;13.820;2022-09-06T16:07:37;8.77;;;7.88;;
7841;SDS011;3966;51.052;13.820;2022-09-06T16:10:07;12.30;;;9.60;;
7841;SDS011;3966;51.052;13.820;2022-09-06T16:12:35;10.25;;;8.75;;
7841;SDS011;3966;51.052;13.820;2022-09-06T16:15:01;11.82;;;8.70;;
7841;SDS011;3966;51.052;13.820;2022-09-06T16:17:27;10.23;;;9.07;;
7841;SDS011;3966;51.052;13.820;2022-09-06T16:19:55;11.63;;;9.48;;
7841;SDS011;3966;51.052;13.820;2022-09-06T16:22:20;9.95;;;7.88;;
7841;SDS011;3966;51.052;13.820;2022-09-06T16:24:46;10.63;;;8.55;;
7841;SDS011;3966;51.052;13.820;2022-09-06T16:27:11;10.70;;;9.57;;
7841;SDS011;3966;51.052;13.820;2022-09-06T16:29:37;11.18;;;9.88;;
7841;SDS011;3966;51.052;13.820;2022-09-06T16:32:02;15.32;;;11.32;;
7841;SDS011;3966;51.052;13.820;2022-09-06T16:34:28;13.45;;;10.75;;
7841;SDS011;3966;51.052;13.820;2022-09-06T16:36:53;12.88;;;10.60;;
7841;SDS011;3966;51.052;13.820;2022-09-06T16:39:20;20.25;;;11.00;;